createdAt,value
2023-01-13T00:00:31.426Z,754.24
2023-01-13T00:01:26.444Z,760.68
2023-01-13T00:02:21.561Z,771.68
2023-01-13T00:03:16.630Z,779.79
2023-01-13T00:04:12.480Z,784.83
2023-01-13T00:05:07.488Z,784.83
2023-01-13T00:06:03.376Z,790.41
2023-01-13T00:06:58.583Z,791.82
2023-01-13T00:07:53.675Z,796.06
2023-01-13T00:08:49.721Z,801.80
2023-01-13T00:09:44.933Z,799.88
2023-01-13T00:10:40.017Z,803.25
2023-01-13T00:11:36.754Z,807.13
2023-01-13T00:12:31.775Z,807.62
2023-01-13T00:13:27.041Z,816.51
2023-01-13T00:14:22.975Z,821.03
2023-01-13T00:15:17.780Z,823.57
2023-01-13T00:16:13.816Z,821.03
2023-01-13T00:17:08.832Z,822.55
2023-01-13T00:18:04.187Z,820.03
2023-01-13T00:18:59.865Z,823.57
2023-01-13T00:19:55.068Z,819.02
2023-01-13T00:20:50.127Z,816.51
2023-01-13T00:21:46.676Z,812.04
2023-01-13T00:22:42.018Z,815.52
2023-01-13T00:23:37.757Z,811.55
2023-01-13T00:24:32.834Z,815.52
2023-01-13T00:25:27.943Z,806.16
2023-01-13T00:26:23.161Z,809.58
2023-01-13T00:27:18.470Z,811.55
2023-01-13T00:28:13.665Z,813.03
2023-01-13T00:29:08.617Z,816.02
2023-01-13T00:30:03.860Z,821.03
2023-01-13T00:30:58.872Z,817.01
2023-01-13T00:31:53.920Z,813.53
2023-01-13T00:32:48.997Z,811.06
2023-01-13T00:33:49.148Z,813.03
2023-01-13T00:34:44.354Z,807.62
2023-01-13T00:35:39.552Z,805.67
2023-01-13T00:36:34.584Z,807.62
2023-01-13T00:37:29.672Z,811.55
2023-01-13T00:38:24.743Z,800.36
2023-01-13T00:39:19.778Z,794.17
2023-01-13T00:40:14.958Z,786.68
2023-01-13T00:41:09.927Z,782.99
2023-01-13T00:42:04.980Z,772.57
2023-01-13T00:43:00.297Z,770.78
2023-01-13T00:43:55.187Z,773.02
2023-01-13T00:44:50.255Z,772.57
2023-01-13T00:45:45.331Z,773.02
2023-01-13T00:46:40.488Z,773.47
2023-01-13T00:47:35.418Z,778.88
2023-01-13T00:48:30.510Z,762.86
2023-01-13T00:49:25.644Z,765.48
2023-01-13T00:50:20.614Z,772.12
2023-01-13T00:51:15.639Z,792.28
2023-01-13T00:52:11.191Z,805.67
2023-01-13T00:53:05.832Z,811.06
2023-01-13T00:54:00.909Z,821.54
2023-01-13T00:54:56.084Z,824.07
2023-01-13T00:55:51.284Z,832.29
2023-01-13T00:56:46.353Z,842.80
2023-01-13T00:57:41.525Z,840.15
2023-01-13T00:58:36.430Z,853.03
2023-01-13T00:59:31.459Z,853.58
2023-01-13T01:00:26.535Z,855.22
2023-01-13T01:01:21.638Z,860.73
2023-01-13T01:02:16.806Z,875.41
2023-01-13T01:03:11.652Z,880.03
2023-01-13T01:04:11.602Z,894.77
2023-01-13T01:05:06.874Z,902.03
2023-01-13T01:06:02.141Z,910.02
2023-01-13T01:06:57.771Z,918.16
2023-01-13T01:07:52.884Z,922.60
2023-01-13T01:08:48.181Z,929.67
2023-01-13T01:09:44.482Z,929.02
2023-01-13T01:10:39.780Z,932.26
2023-01-13T01:11:35.632Z,944.13
2023-01-13T01:12:30.621Z,948.15
2023-01-13T01:13:25.719Z,949.50
2023-01-13T01:14:21.892Z,952.89
2023-01-13T01:15:16.829Z,957.68
2023-01-13T01:16:13.204Z,959.74
2023-01-13T01:17:08.055Z,954.25
2023-01-13T01:18:03.125Z,953.57
2023-01-13T01:18:59.568Z,956.30
2023-01-13T01:19:54.637Z,957.68
2023-01-13T01:20:50.082Z,949.50
2023-01-13T01:21:46.012Z,944.80
2023-01-13T01:22:41.093Z,938.82
2023-01-13T01:23:36.868Z,938.16
2023-01-13T01:24:32.171Z,930.31
2023-01-13T01:25:27.272Z,933.57
2023-01-13T01:26:22.940Z,929.67
2023-01-13T01:27:18.467Z,920.69
2023-01-13T01:28:13.956Z,921.96
2023-01-13T01:29:09.222Z,916.27
2023-01-13T01:30:04.455Z,914.38
2023-01-13T01:31:00.211Z,910.02
2023-01-13T01:31:55.285Z,906.93
2023-01-13T01:32:50.480Z,900.20
2023-01-13T01:33:46.806Z,908.78
2023-01-13T01:34:42.141Z,902.03
2023-01-13T01:35:37.779Z,895.97
2023-01-13T01:36:32.965Z,893.57
2023-01-13T01:37:28.096Z,895.37
2023-01-13T01:38:23.853Z,885.87
2023-01-13T01:39:19.236Z,885.87
2023-01-13T01:40:14.869Z,884.69
2023-01-13T01:41:10.184Z,879.45
2023-01-13T01:42:05.266Z,876.56
2023-01-13T01:43:01.034Z,870.84
2023-01-13T01:43:56.293Z,870.84
2023-01-13T01:44:51.493Z,869.14
2023-01-13T01:45:47.825Z,871.98
2023-01-13T01:46:43.241Z,877.14
2023-01-13T01:47:38.989Z,873.12
2023-01-13T01:48:34.158Z,860.18
2023-01-13T01:49:29.222Z,850.32
2023-01-13T01:50:25.127Z,855.22
2023-01-13T01:51:20.216Z,857.42
2023-01-13T01:52:16.079Z,846.01
2023-01-13T01:53:11.163Z,823.57
2023-01-13T01:54:06.509Z,825.09
2023-01-13T01:55:02.299Z,826.62
2023-01-13T01:55:57.536Z,833.33
2023-01-13T01:56:52.995Z,841.74
2023-01-13T01:57:49.018Z,851.40
2023-01-13T01:58:44.053Z,852.49
2023-01-13T01:59:40.010Z,861.29
2023-01-13T02:00:35.137Z,869.14
2023-01-13T02:01:30.553Z,878.87
2023-01-13T02:02:26.369Z,887.04
2023-01-13T02:03:21.418Z,884.69
2023-01-13T02:04:16.606Z,891.19
2023-01-13T02:05:11.757Z,895.97
2023-01-13T02:06:07.078Z,905.70
2023-01-13T02:07:02.183Z,912.51
2023-01-13T02:07:57.344Z,913.13
2023-01-13T02:08:52.321Z,918.16
2023-01-13T02:09:47.324Z,919.42
2023-01-13T02:10:42.418Z,929.02
2023-01-13T02:11:37.520Z,933.57
2023-01-13T02:12:32.706Z,930.96
2023-01-13T02:13:27.676Z,929.67
2023-01-13T02:14:22.766Z,925.80
2023-01-13T02:15:17.823Z,936.84
2023-01-13T02:16:14.277Z,948.15
2023-01-13T02:17:09.324Z,946.81
2023-01-13T02:18:04.650Z,947.48
2023-01-13T02:18:59.737Z,944.13
2023-01-13T02:19:54.959Z,940.14
2023-01-13T02:20:50.265Z,934.22
2023-01-13T02:21:46.177Z,962.51
2023-01-13T02:22:41.361Z,983.06
2023-01-13T02:23:36.494Z,988.89
2023-01-13T02:24:31.548Z,992.57
2023-01-13T02:25:26.894Z,999.25
2023-01-13T02:26:21.906Z,1020.64
2023-01-13T02:27:18.438Z,1032.48
2023-01-13T02:28:13.719Z,1045.42
2023-01-13T02:29:08.946Z,1049.53
2023-01-13T02:30:04.027Z,1055.34
2023-01-13T02:30:59.163Z,1069.71
2023-01-13T02:31:54.223Z,1077.48
2023-01-13T02:32:49.338Z,1081.85
2023-01-13T02:33:44.463Z,1093.37
2023-01-13T02:34:39.729Z,1106.96
2023-01-13T02:35:34.669Z,1119.97
2023-01-13T02:36:29.780Z,1128.49
2023-01-13T02:37:24.782Z,1147.89
2023-01-13T02:38:19.888Z,1157.85
2023-01-13T02:39:14.928Z,1156.85
2023-01-13T02:40:10.306Z,1174.14
2023-01-13T02:41:05.075Z,1186.67
2023-01-13T02:42:00.189Z,1183.51
2023-01-13T02:42:55.185Z,1186.67
2023-01-13T02:43:50.195Z,1196.24
2023-01-13T02:44:45.192Z,1213.64
2023-01-13T02:45:40.471Z,1221.41
2023-01-13T02:46:35.336Z,1219.18
2023-01-13T02:47:30.355Z,1224.77
2023-01-13T02:48:25.377Z,1215.85
2023-01-13T02:49:23.076Z,1220.29
2023-01-13T02:50:18.075Z,1230.42
2023-01-13T02:51:13.211Z,1245.34
2023-01-13T02:52:08.074Z,1247.66
2023-01-13T02:53:03.198Z,1261.81
2023-01-13T02:53:58.333Z,1271.43
2023-01-13T02:54:53.348Z,1273.85
2023-01-13T02:55:48.361Z,1288.61
2023-01-13T02:56:43.479Z,1269.01
2023-01-13T02:57:38.614Z,1272.64
2023-01-13T02:58:33.666Z,1261.81
2023-01-13T02:59:28.663Z,1254.70
2023-01-13T03:00:24.388Z,1253.52
2023-01-13T03:01:19.857Z,1278.74
2023-01-13T03:02:14.916Z,1267.81
2023-01-13T03:03:10.576Z,1283.65
2023-01-13T03:04:05.871Z,1284.89
2023-01-13T03:05:01.609Z,1297.38
2023-01-13T03:05:56.742Z,1302.44
2023-01-13T03:06:52.206Z,1329.68
2023-01-13T03:07:47.939Z,1333.67
2023-01-13T03:08:43.385Z,1313.98
2023-01-13T03:09:38.237Z,1307.54
2023-01-13T03:10:34.913Z,1308.82
2023-01-13T03:11:30.156Z,1311.40
2023-01-13T03:12:26.127Z,1316.57
2023-01-13T03:13:21.270Z,1324.41
2023-01-13T03:14:16.321Z,1331.01
2023-01-13T03:15:12.145Z,1341.71
2023-01-13T03:16:07.186Z,1339.02
2023-01-13T03:17:03.006Z,1348.48
2023-01-13T03:17:58.267Z,1358.09
2023-01-13T03:18:53.584Z,1348.48
2023-01-13T03:19:49.430Z,1365.03
2023-01-13T03:20:44.463Z,1362.24
2023-01-13T03:21:39.642Z,1374.87
2023-01-13T03:22:35.881Z,1387.73
2023-01-13T03:23:31.292Z,1379.13
2023-01-13T03:24:27.006Z,1392.07
2023-01-13T03:25:22.295Z,1384.85
2023-01-13T03:26:17.411Z,1376.29
2023-01-13T03:27:13.248Z,1393.53
2023-01-13T03:28:08.495Z,1393.53
2023-01-13T03:29:04.459Z,1397.91
2023-01-13T03:29:59.490Z,1396.44
2023-01-13T03:30:54.857Z,1386.29
2023-01-13T03:31:50.569Z,1379.13
2023-01-13T03:32:45.725Z,1373.46
2023-01-13T03:33:41.063Z,1373.46
2023-01-13T03:34:37.162Z,1363.64
2023-01-13T03:35:32.526Z,1363.64
2023-01-13T03:36:28.226Z,1373.46
2023-01-13T03:37:23.465Z,1356.71
2023-01-13T03:38:18.623Z,1349.85
2023-01-13T03:39:13.733Z,1345.77
2023-01-13T03:40:09.043Z,1345.77
2023-01-13T03:41:04.054Z,1353.95
2023-01-13T03:41:59.200Z,1345.77
2023-01-13T03:42:54.199Z,1345.77
2023-01-13T03:43:49.239Z,1335.00
2023-01-13T03:44:44.404Z,1320.47
2023-01-13T03:45:40.030Z,1324.41
2023-01-13T03:46:34.583Z,1329.68
2023-01-13T03:47:29.605Z,1336.34
2023-01-13T03:48:29.383Z,1332.33
2023-01-13T03:49:24.637Z,1316.57
2023-01-13T03:50:19.782Z,1321.78
2023-01-13T03:51:14.960Z,1329.68
2023-01-13T03:52:09.965Z,1359.47
2023-01-13T03:53:05.103Z,1329.68
2023-01-13T03:54:00.085Z,1316.57
2023-01-13T03:54:55.250Z,1320.47
2023-01-13T03:55:50.267Z,1327.04
2023-01-13T03:56:45.428Z,1329.68
2023-01-13T03:57:40.461Z,1327.04
2023-01-13T03:58:35.493Z,1328.36
2023-01-13T03:59:30.500Z,1313.98
2023-01-13T04:00:25.758Z,1301.17
2023-01-13T04:01:20.862Z,1261.81
2023-01-13T04:02:16.300Z,1267.81
2023-01-13T04:03:10.914Z,1272.64
2023-01-13T04:04:05.974Z,1271.43
2023-01-13T04:05:01.137Z,1277.51
2023-01-13T04:05:56.164Z,1292.35
2023-01-13T04:06:51.155Z,1238.40
2023-01-13T04:07:46.409Z,1211.43
2023-01-13T04:08:41.271Z,1193.03
2023-01-13T04:09:36.289Z,1204.87
2023-01-13T04:10:31.374Z,1191.96
2023-01-13T04:11:26.510Z,1178.29
2023-01-13T04:12:21.395Z,1169.00
2023-01-13T04:13:16.427Z,1179.33
2023-01-13T04:14:11.431Z,1187.72
2023-01-13T04:15:06.683Z,1190.90
2023-01-13T04:16:01.748Z,1180.37
2023-01-13T04:16:56.806Z,1169.00
2023-01-13T04:17:51.801Z,1145.92
2023-01-13T04:18:47.055Z,1150.86
2023-01-13T04:19:41.935Z,1153.85
2023-01-13T04:20:37.034Z,1158.85
2023-01-13T04:21:32.164Z,1160.87
2023-01-13T04:22:27.060Z,1155.84
2023-01-13T04:23:22.057Z,1158.85
2023-01-13T04:24:17.091Z,1153.85
2023-01-13T04:25:12.082Z,1158.85
2023-01-13T04:26:11.419Z,1164.92
2023-01-13T04:27:06.264Z,1170.03
2023-01-13T04:28:01.320Z,1180.37
2023-01-13T04:28:56.344Z,1179.33
2023-01-13T04:29:51.380Z,1171.05
2023-01-13T04:30:46.519Z,1152.85
2023-01-13T04:31:41.682Z,1122.79
2023-01-13T04:32:36.552Z,1124.68
2023-01-13T04:33:31.580Z,1154.84
2023-01-13T04:34:28.377Z,1144.94
2023-01-13T04:35:21.581Z,998.50
2023-01-13T04:36:16.636Z,987.43
2023-01-13T04:37:12.270Z,1009.07
2023-01-13T04:38:07.281Z,1042.97
2023-01-13T04:39:02.425Z,1069.71
2023-01-13T04:39:58.411Z,1111.57
2023-01-13T04:40:53.596Z,1120.91
2023-01-13T04:41:49.416Z,1142.00
2023-01-13T04:42:44.630Z,1161.88
2023-01-13T04:43:39.751Z,1152.85
2023-01-13T04:44:35.578Z,1160.87
2023-01-13T04:45:30.849Z,1176.21
2023-01-13T04:46:26.371Z,1173.11
2023-01-13T04:47:22.420Z,1047.88
2023-01-13T04:48:17.822Z,1087.13
2023-01-13T04:49:13.642Z,1100.58
2023-01-13T04:50:08.794Z,1108.80
2023-01-13T04:51:04.297Z,1016.76
2023-01-13T04:51:59.908Z,1004.52
2023-01-13T04:52:55.182Z,1022.21
2023-01-13T04:53:50.936Z,1043.78
2023-01-13T04:54:46.325Z,1062.05
2023-01-13T04:55:41.637Z,1070.57
2023-01-13T04:56:37.309Z,846.54
2023-01-13T04:57:32.680Z,905.70
2023-01-13T04:58:27.660Z,941.47
2023-01-13T04:59:24.100Z,963.90
2023-01-13T05:00:19.264Z,986.70
2023-01-13T05:01:15.349Z,1016.76
2023-01-13T05:02:10.419Z,1037.30
2023-01-13T05:03:05.719Z,754.66
2023-01-13T05:04:01.534Z,803.25
2023-01-13T05:04:56.666Z,859.07
2023-01-13T05:05:52.699Z,905.09
2023-01-13T05:06:47.646Z,923.88
2023-01-13T05:07:42.789Z,920.05
2023-01-13T05:08:38.847Z,929.02
2023-01-13T05:09:33.954Z,945.47
2023-01-13T05:10:29.045Z,910.64
2023-01-13T05:11:25.201Z,912.51
2023-01-13T05:12:20.429Z,890.59
2023-01-13T05:13:15.741Z,918.16
2023-01-13T05:14:10.972Z,941.47
2023-01-13T05:15:07.414Z,960.43
2023-01-13T05:16:05.125Z,954.25
2023-01-13T05:16:57.943Z,905.09
2023-01-13T05:17:53.201Z,878.87
2023-01-13T05:18:49.093Z,893.57
2023-01-13T05:19:44.275Z,911.26
2023-01-13T05:20:39.374Z,877.14
2023-01-13T05:21:35.712Z,832.29
2023-01-13T05:22:31.107Z,821.54
2023-01-13T05:23:26.764Z,846.01
2023-01-13T05:24:22.029Z,859.07
2023-01-13T05:25:17.251Z,866.88
2023-01-13T05:26:13.022Z,881.77
2023-01-13T05:27:08.234Z,914.38
2023-01-13T05:28:04.152Z,929.02
2023-01-13T05:28:59.283Z,932.26
2023-01-13T05:29:54.409Z,923.24
2023-01-13T05:30:49.676Z,925.16
2023-01-13T05:31:44.650Z,924.52
2023-01-13T05:32:39.854Z,946.81
2023-01-13T05:33:36.006Z,942.13
2023-01-13T05:34:30.193Z,951.53
2023-01-13T05:35:25.276Z,943.46
2023-01-13T05:36:20.389Z,936.84
2023-01-13T05:37:15.470Z,941.47
2023-01-13T05:38:10.669Z,929.67
2023-01-13T05:39:06.110Z,881.77
2023-01-13T05:40:00.654Z,871.41
2023-01-13T05:40:55.764Z,861.29
2023-01-13T05:41:50.994Z,873.12
2023-01-13T05:42:45.973Z,878.87
2023-01-13T05:43:41.087Z,887.04
2023-01-13T05:44:36.084Z,842.27
2023-01-13T05:45:31.162Z,841.21
2023-01-13T05:46:27.201Z,853.58
2023-01-13T05:47:22.233Z,846.01
2023-01-13T05:48:18.194Z,849.24
2023-01-13T05:49:13.249Z,767.68
2023-01-13T05:50:08.357Z,700.46
2023-01-13T05:51:04.303Z,666.17
2023-01-13T05:51:59.309Z,582.90
2023-01-13T05:52:55.083Z,576.84
2023-01-13T05:53:50.252Z,616.30
2023-01-13T05:54:45.397Z,666.83
2023-01-13T05:55:41.449Z,701.93
2023-01-13T05:56:36.581Z,710.91
2023-01-13T05:57:31.771Z,715.49
2023-01-13T05:58:28.393Z,704.90
2023-01-13T05:59:23.488Z,710.15
2023-01-13T06:00:19.250Z,727.98
2023-01-13T06:01:14.462Z,744.23
2023-01-13T06:02:09.586Z,748.32
2023-01-13T06:03:05.311Z,749.25
2023-01-13T06:04:00.531Z,739.28
2023-01-13T06:04:56.454Z,737.65
2023-01-13T06:05:51.567Z,730.38
2023-01-13T06:06:46.697Z,746.73
2023-01-13T06:07:42.490Z,754.66
2023-01-13T06:08:39.742Z,773.02
2023-01-13T06:09:33.185Z,767.24
2023-01-13T06:10:28.241Z,710.15
2023-01-13T06:11:23.332Z,704.15
2023-01-13T06:12:18.428Z,712.43
2023-01-13T06:13:13.492Z,726.40
2023-01-13T06:14:08.488Z,746.23
2023-01-13T06:15:03.952Z,724.82
2023-01-13T06:15:58.555Z,736.02
2023-01-13T06:16:53.584Z,746.64
2023-01-13T06:17:48.659Z,769.01
2023-01-13T06:18:43.794Z,776.61
2023-01-13T06:19:38.869Z,788.54
2023-01-13T06:20:35.454Z,787.15
2023-01-13T06:21:32.963Z,785.29
2023-01-13T06:22:25.477Z,752.96
2023-01-13T06:23:20.668Z,758.09
2023-01-13T06:24:15.514Z,753.39
2023-01-13T06:25:10.588Z,735.21
2023-01-13T06:26:05.582Z,715.49
2023-01-13T06:27:00.716Z,683.93
2023-01-13T06:27:55.929Z,714.72
2023-01-13T06:28:50.922Z,736.02
2023-01-13T06:29:45.949Z,729.58
2023-01-13T06:30:41.041Z,676.30
2023-01-13T06:31:36.194Z,692.45
2023-01-13T06:32:32.276Z,694.62
2023-01-13T06:33:27.385Z,707.14
2023-01-13T06:34:23.323Z,719.34
2023-01-13T06:35:18.373Z,736.83
2023-01-13T06:36:13.801Z,752.96
2023-01-13T06:37:09.493Z,747.57
2023-01-13T06:38:04.607Z,757.23
2023-01-13T06:39:00.563Z,779.33
2023-01-13T06:39:55.657Z,751.69
2023-01-13T06:40:51.135Z,761.99
2023-01-13T06:41:46.881Z,757.66
2023-01-13T06:42:42.079Z,761.12
2023-01-13T06:43:37.328Z,771.23
2023-01-13T06:44:33.658Z,773.91
2023-01-13T06:45:29.021Z,742.58
2023-01-13T06:46:24.841Z,746.23
2023-01-13T06:47:20.000Z,754.66
2023-01-13T06:48:15.118Z,758.09
2023-01-13T06:49:10.352Z,745.07
2023-01-13T06:50:05.648Z,740.93
2023-01-13T06:51:00.699Z,717.03
2023-01-13T06:51:55.876Z,694.62
2023-01-13T06:52:51.142Z,701.93
2023-01-13T06:53:47.763Z,713.19
2023-01-13T06:54:43.095Z,718.57
2023-01-13T06:55:38.819Z,727.19
2023-01-13T06:56:33.986Z,702.67
2023-01-13T06:57:29.304Z,704.15
2023-01-13T06:58:24.602Z,691.74
2023-01-13T06:59:19.748Z,701.19
2023-01-13T07:00:15.037Z,691.74
2023-01-13T07:01:10.074Z,662.20
2023-01-13T07:02:05.003Z,673.57
2023-01-13T07:03:00.070Z,642.42
2023-01-13T07:03:54.951Z,639.34
2023-01-13T07:04:50.139Z,655.04
2023-01-13T07:05:45.294Z,545.69
2023-01-13T07:06:40.310Z,520.56
2023-01-13T07:07:35.375Z,558.49
2023-01-13T07:08:30.504Z,578.35
2023-01-13T07:09:25.499Z,560.84
2023-01-13T07:10:20.492Z,555.69
2023-01-13T07:11:15.788Z,576.84
2023-01-13T07:12:10.849Z,594.33
2023-01-13T07:13:05.909Z,596.99
2023-01-13T07:14:01.121Z,612.90
2023-01-13T07:14:56.028Z,610.09
2023-01-13T07:15:51.076Z,590.64
2023-01-13T07:16:46.230Z,594.33
2023-01-13T07:17:41.192Z,616.30
2023-01-13T07:18:36.365Z,534.75
2023-01-13T07:19:31.288Z,532.19
2023-01-13T07:20:26.476Z,558.49
2023-01-13T07:21:21.531Z,558.02
2023-01-13T07:22:16.714Z,559.42
2023-01-13T07:23:11.656Z,572.39
2023-01-13T07:24:06.860Z,587.00
2023-01-13T07:25:02.012Z,558.02
2023-01-13T07:25:57.217Z,432.73
2023-01-13T07:26:52.226Z,474.28
2023-01-13T07:27:47.471Z,493.95
2023-01-13T07:28:42.451Z,513.74
2023-01-13T07:29:37.518Z,529.23
2023-01-13T07:30:32.556Z,529.23
2023-01-13T07:31:27.852Z,502.89
2023-01-13T07:32:22.631Z,509.81
2023-01-13T07:33:17.703Z,530.07
2023-01-13T07:34:12.876Z,542.58
2023-01-13T07:35:07.815Z,564.63
2023-01-13T07:36:02.845Z,581.88
2023-01-13T07:36:57.860Z,604.56
2023-01-13T07:37:53.295Z,602.92
2023-01-13T07:38:48.480Z,635.68
2023-01-13T07:39:43.657Z,643.04
2023-01-13T07:40:38.907Z,627.31
2023-01-13T07:41:33.941Z,629.09
2023-01-13T07:42:29.468Z,643.04
2023-01-13T07:43:24.274Z,615.16
2023-01-13T07:44:19.641Z,635.68
2023-01-13T07:45:14.700Z,647.41
2023-01-13T07:46:10.103Z,669.51
2023-01-13T07:47:05.170Z,688.17
2023-01-13T07:48:00.565Z,688.17
2023-01-13T07:48:55.577Z,641.19
2023-01-13T07:49:51.159Z,641.19
2023-01-13T07:50:46.189Z,658.93
2023-01-13T07:51:41.234Z,664.84
2023-01-13T07:52:36.533Z,666.17
2023-01-13T07:53:31.642Z,686.04
2023-01-13T07:54:39.763Z,700.46
2023-01-13T07:55:22.783Z,687.46
2023-01-13T07:56:16.762Z,685.34
2023-01-13T07:57:11.807Z,673.57
2023-01-13T07:58:06.886Z,676.30
2023-01-13T07:59:02.030Z,696.07
2023-01-13T07:59:58.206Z,701.93
2023-01-13T08:00:53.354Z,711.67
2023-01-13T08:01:48.493Z,721.68
2023-01-13T08:02:44.049Z,715.49
2023-01-13T08:03:39.126Z,727.19
2023-01-13T08:04:34.546Z,716.26
2023-01-13T08:05:29.792Z,676.99
2023-01-13T08:06:24.990Z,680.44
2023-01-13T08:07:20.207Z,696.07
2023-01-13T08:08:15.413Z,701.93
2023-01-13T08:09:10.423Z,700.46
2023-01-13T08:10:05.740Z,700.46
2023-01-13T08:11:00.972Z,710.91
2023-01-13T08:11:56.020Z,724.03
2023-01-13T08:12:54.578Z,731.18
2023-01-13T08:13:47.610Z,737.65
2023-01-13T08:14:41.801Z,745.07
2023-01-13T08:15:37.104Z,757.66
2023-01-13T08:16:32.313Z,767.68
2023-01-13T08:17:27.538Z,759.82
2023-01-13T08:18:22.622Z,752.11
2023-01-13T08:19:18.106Z,692.45
2023-01-13T08:20:13.192Z,651.84
2023-01-13T08:21:08.448Z,656.98
2023-01-13T08:22:03.687Z,683.23
2023-01-13T08:22:58.999Z,691.02
2023-01-13T08:23:54.064Z,662.20
2023-01-13T08:24:49.421Z,680.44
2023-01-13T08:25:44.566Z,703.41
2023-01-13T08:26:39.764Z,721.68
2023-01-13T08:27:34.994Z,731.98
2023-01-13T08:28:30.279Z,687.46
2023-01-13T08:29:25.429Z,680.44
2023-01-13T08:30:20.655Z,705.64
2023-01-13T08:31:15.753Z,656.98
2023-01-13T08:32:10.956Z,653.12
2023-01-13T08:33:06.224Z,676.99
2023-01-13T08:34:01.436Z,691.74
2023-01-13T08:34:59.456Z,690.30
2023-01-13T08:35:54.763Z,702.67
2023-01-13T08:36:50.037Z,707.14
2023-01-13T08:37:45.030Z,715.49
2023-01-13T08:38:40.502Z,727.98
2023-01-13T08:39:35.738Z,744.23
2023-01-13T08:40:31.014Z,758.52
2023-01-13T08:41:26.318Z,751.69
2023-01-13T08:42:21.920Z,754.66
2023-01-13T08:43:17.372Z,766.80
2023-01-13T08:44:12.320Z,639.34
2023-01-13T08:45:07.564Z,581.88
2023-01-13T08:46:02.777Z,623.21
2023-01-13T08:46:58.090Z,657.63
2023-01-13T08:47:53.043Z,683.23
2023-01-13T08:48:48.417Z,672.89
2023-01-13T08:49:43.638Z,671.53
2023-01-13T08:50:38.759Z,693.90
2023-01-13T08:51:35.332Z,716.26
2023-01-13T08:52:30.504Z,677.68
2023-01-13T08:53:25.713Z,664.18
2023-01-13T08:54:21.045Z,700.46
2023-01-13T08:55:19.240Z,718.57
2023-01-13T08:56:14.448Z,740.10
2023-01-13T08:57:09.663Z,756.37
2023-01-13T08:58:15.380Z,764.17
2023-01-13T08:59:01.441Z,764.60
2023-01-13T08:59:55.610Z,771.68
2023-01-13T09:00:50.870Z,767.68
2023-01-13T09:01:46.279Z,763.29
2023-01-13T09:02:41.459Z,757.66
2023-01-13T09:03:36.746Z,718.57
2023-01-13T09:04:32.147Z,691.74
2023-01-13T09:05:27.201Z,712.43
2023-01-13T09:06:22.474Z,731.98
2023-01-13T09:07:17.731Z,752.54
2023-01-13T09:08:13.089Z,753.39
2023-01-13T09:09:08.340Z,751.69
2023-01-13T09:10:03.580Z,758.52
2023-01-13T09:10:58.989Z,773.47
2023-01-13T09:11:54.056Z,778.43
2023-01-13T09:12:49.360Z,782.07
2023-01-13T09:13:44.742Z,786.68
2023-01-13T09:14:40.142Z,779.79
2023-01-13T09:15:35.445Z,771.23
2023-01-13T09:16:30.588Z,780.70
2023-01-13T09:17:25.994Z,778.88
2023-01-13T09:18:20.963Z,782.53
2023-01-13T09:19:16.037Z,783.91
2023-01-13T09:20:11.052Z,760.68
2023-01-13T09:21:06.037Z,749.58
2023-01-13T09:22:01.126Z,748.74
2023-01-13T09:22:56.502Z,750.84
2023-01-13T09:23:51.133Z,740.10
2023-01-13T09:24:46.103Z,721.68
2023-01-13T09:25:41.363Z,745.90
2023-01-13T09:26:36.324Z,732.78
2023-01-13T09:27:31.492Z,747.90
2023-01-13T09:28:26.715Z,758.95
2023-01-13T09:29:21.536Z,737.65
2023-01-13T09:30:16.665Z,736.83
2023-01-13T09:31:11.879Z,728.78
2023-01-13T09:32:06.794Z,732.78
2023-01-13T09:33:01.857Z,764.17
2023-01-13T09:33:57.025Z,816.02
2023-01-13T09:34:51.965Z,840.68
2023-01-13T09:35:46.991Z,857.97
2023-01-13T09:36:42.085Z,874.26
2023-01-13T09:37:37.106Z,882.94
2023-01-13T09:38:32.447Z,965.99
2023-01-13T09:39:27.798Z,1011.36
2023-01-13T09:40:23.064Z,1050.35
2023-01-13T09:41:18.624Z,1094.26
2023-01-13T09:42:14.034Z,1080.10
2023-01-13T09:43:09.255Z,1003.76
2023-01-13T09:44:04.803Z,878.87
2023-01-13T09:44:59.852Z,899.60
2023-01-13T09:45:55.104Z,927.08
2023-01-13T09:46:50.245Z,944.13
2023-01-13T09:47:45.617Z,946.14
2023-01-13T09:48:40.997Z,874.84
2023-01-13T09:49:36.251Z,851.95
2023-01-13T09:50:31.474Z,874.26
2023-01-13T09:51:27.090Z,888.82
2023-01-13T09:52:22.050Z,896.58
2023-01-13T09:53:17.169Z,897.78
2023-01-13T09:54:12.569Z,864.08
2023-01-13T09:55:07.865Z,857.42
2023-01-13T09:56:02.983Z,868.01
2023-01-13T09:56:58.438Z,865.76
2023-01-13T09:57:53.648Z,881.19
2023-01-13T09:58:48.853Z,894.17
2023-01-13T09:59:44.129Z,866.88
2023-01-13T10:00:39.371Z,849.78
2023-01-13T10:01:34.588Z,847.08
2023-01-13T10:02:29.858Z,839.62
2023-01-13T10:03:25.122Z,824.58
2023-01-13T10:04:20.362Z,809.09
2023-01-13T10:05:15.566Z,783.45
2023-01-13T10:06:11.225Z,786.22
2023-01-13T10:07:06.109Z,793.23
2023-01-13T10:08:01.362Z,827.65
2023-01-13T10:08:56.750Z,845.47
2023-01-13T10:09:52.079Z,808.60
2023-01-13T10:10:47.197Z,809.58
2023-01-13T10:11:42.336Z,849.24
2023-01-13T10:12:37.680Z,878.29
2023-01-13T10:13:33.192Z,891.78
2023-01-13T10:14:28.202Z,900.81
2023-01-13T10:15:23.762Z,887.63
2023-01-13T10:16:18.876Z,860.73
2023-01-13T10:17:14.136Z,855.77
2023-01-13T10:18:09.465Z,868.01
2023-01-13T10:19:04.560Z,879.45
2023-01-13T10:19:59.675Z,890.59
2023-01-13T10:20:55.087Z,913.13
2023-01-13T10:21:50.208Z,917.53
2023-01-13T10:22:45.255Z,930.96
2023-01-13T10:23:40.368Z,828.68
2023-01-13T10:24:35.473Z,811.06
2023-01-13T10:25:30.723Z,860.18
2023-01-13T10:26:25.753Z,790.88
2023-01-13T10:27:20.784Z,814.52
2023-01-13T10:28:18.442Z,804.22
2023-01-13T10:29:11.186Z,815.52
2023-01-13T10:30:06.051Z,836.47
2023-01-13T10:31:01.157Z,870.27
2023-01-13T10:31:56.109Z,911.89
2023-01-13T10:32:51.203Z,952.21
2023-01-13T10:33:46.169Z,967.39
2023-01-13T10:34:41.584Z,976.59
2023-01-13T10:35:36.285Z,988.89
2023-01-13T10:36:31.401Z,1001.50
2023-01-13T10:37:26.406Z,1025.35
2023-01-13T10:38:21.543Z,1030.09
2023-01-13T10:39:16.583Z,1035.69
2023-01-13T10:40:12.508Z,1036.49
2023-01-13T10:41:07.742Z,1005.27
2023-01-13T10:42:03.282Z,981.62
2023-01-13T10:42:58.558Z,1039.72
2023-01-13T10:43:54.071Z,1092.47
2023-01-13T10:44:49.521Z,1178.29
2023-01-13T10:45:44.947Z,1264.20
2023-01-13T10:46:40.380Z,1353.95
2023-01-13T10:47:35.715Z,1444.81
2023-01-13T10:48:31.116Z,1526.59
2023-01-13T10:49:26.713Z,1565.06
2023-01-13T10:50:22.099Z,1623.10
2023-01-13T10:51:17.380Z,1655.30
2023-01-13T10:52:13.030Z,1644.09
2023-01-13T10:53:08.307Z,1563.23
2023-01-13T10:54:03.268Z,1498.32
2023-01-13T10:54:58.297Z,1468.65
2023-01-13T10:55:54.822Z,1444.81
2023-01-13T10:56:48.555Z,1358.09
2023-01-13T10:57:43.546Z,1293.60
2023-01-13T10:58:39.079Z,1254.70
2023-01-13T10:59:33.703Z,1194.10
2023-01-13T11:00:28.811Z,1142.00
2023-01-13T11:01:24.235Z,1086.25
2023-01-13T11:02:25.610Z,1044.60
2023-01-13T11:03:18.105Z,1016.76
2023-01-13T11:04:12.247Z,994.78
2023-01-13T11:05:07.350Z,956.30
2023-01-13T11:06:02.392Z,908.16
2023-01-13T11:06:57.564Z,877.71
2023-01-13T11:07:52.641Z,826.62
2023-01-13T11:08:47.619Z,818.52
2023-01-13T11:09:42.747Z,786.22
2023-01-13T11:10:38.160Z,772.12
2023-01-13T11:11:32.882Z,752.11
2023-01-13T11:12:27.879Z,733.59
2023-01-13T11:13:22.992Z,720.12
2023-01-13T11:14:17.988Z,691.74
2023-01-13T11:15:13.079Z,677.68
2023-01-13T11:16:08.315Z,673.57
2023-01-13T11:17:03.767Z,662.86
2023-01-13T11:17:59.005Z,632.07
2023-01-13T11:18:54.220Z,633.87
2023-01-13T11:19:49.544Z,615.16
2023-01-13T11:20:44.959Z,643.04
2023-01-13T11:21:40.311Z,662.86
2023-01-13T11:22:37.037Z,678.36
2023-01-13T11:23:32.484Z,653.12
2023-01-13T11:24:27.786Z,643.66